createdAt,value
2022-07-30T00:00:31.301Z,4.30
2022-07-30T00:03:05.610Z,4.70
2022-07-30T00:05:33.773Z,4.60
2022-07-30T00:08:01.942Z,4.90
2022-07-30T00:10:30.319Z,5.30
2022-07-30T00:12:58.520Z,5.70
2022-07-30T00:15:26.873Z,4.90
2022-07-30T00:17:56.070Z,6.00
2022-07-30T00:20:27.958Z,5.30
2022-07-30T00:22:57.129Z,5.10
2022-07-30T00:25:25.508Z,5.00
2022-07-30T00:27:53.681Z,5.10
2022-07-30T00:30:22.097Z,5.10
2022-07-30T00:32:50.884Z,5.00
2022-07-30T00:35:19.135Z,5.50
2022-07-30T00:37:47.505Z,5.40
2022-07-30T00:40:16.399Z,5.70
2022-07-30T00:42:47.338Z,5.20
2022-07-30T00:45:17.560Z,5.30
2022-07-30T00:47:46.558Z,5.30
2022-07-30T00:50:15.854Z,5.10
2022-07-30T00:52:45.157Z,5.60
2022-07-30T00:55:15.607Z,5.50
2022-07-30T00:57:44.509Z,4.90
2022-07-30T01:00:16.014Z,5.30
2022-07-30T01:02:44.303Z,5.20
2022-07-30T01:05:13.296Z,5.00
2022-07-30T01:07:42.290Z,4.70
2022-07-30T01:10:13.268Z,5.30
2022-07-30T01:12:42.524Z,5.40
2022-07-30T01:15:11.792Z,5.40
2022-07-30T01:17:41.022Z,5.40
2022-07-30T01:20:13.602Z,5.30
2022-07-30T01:23:12.704Z,5.10
2022-07-30T01:25:48.964Z,5.70
2022-07-30T01:28:22.773Z,5.60
2022-07-30T01:30:52.635Z,5.40
2022-07-30T01:33:23.424Z,5.40
2022-07-30T01:35:53.115Z,5.50
2022-07-30T01:38:23.243Z,6.10
2022-07-30T01:40:53.476Z,5.80
2022-07-30T01:43:24.416Z,5.70
2022-07-30T01:45:53.954Z,5.60
2022-07-30T01:48:25.952Z,5.60
2022-07-30T01:50:58.502Z,5.50
2022-07-30T01:53:31.756Z,5.90
2022-07-30T01:56:03.209Z,5.50
2022-07-30T01:58:36.909Z,5.50
2022-07-30T02:01:14.604Z,5.70
2022-07-30T02:03:44.154Z,5.40
2022-07-30T02:06:26.678Z,6.00
2022-07-30T02:08:58.375Z,6.00
2022-07-30T02:11:46.006Z,6.30
2022-07-30T02:14:26.574Z,5.90
2022-07-30T02:16:58.408Z,5.90
2022-07-30T02:19:34.353Z,5.70
2022-07-30T02:22:11.374Z,6.20
2022-07-30T02:24:43.134Z,6.10
2022-07-30T02:27:26.613Z,6.00
2022-07-30T02:29:57.810Z,5.80
2022-07-30T02:32:29.702Z,6.40
2022-07-30T02:35:05.556Z,6.00
2022-07-30T02:37:43.352Z,6.20
2022-07-30T02:40:18.286Z,5.80
2022-07-30T02:42:49.725Z,5.40
2022-07-30T02:45:23.970Z,5.80
2022-07-30T02:47:57.831Z,5.50
2022-07-30T02:50:28.256Z,5.90
2022-07-30T02:52:59.627Z,5.40
2022-07-30T02:55:30.463Z,6.10
2022-07-30T02:58:00.798Z,5.40
2022-07-30T03:00:31.046Z,5.00
2022-07-30T03:03:01.884Z,5.50
2022-07-30T03:05:31.233Z,5.60
2022-07-30T03:08:01.757Z,5.60
2022-07-30T03:10:32.143Z,5.30
2022-07-30T03:13:01.801Z,5.80
2022-07-30T03:15:31.036Z,5.90
2022-07-30T03:18:01.732Z,6.50
2022-07-30T03:20:32.695Z,6.40
2022-07-30T03:23:03.499Z,6.00
2022-07-30T03:25:33.106Z,6.90
2022-07-30T03:28:06.509Z,7.40
2022-07-30T03:30:34.882Z,6.50
2022-07-30T03:33:05.629Z,7.50
2022-07-30T03:35:34.199Z,9.10
2022-07-30T03:38:03.110Z,10.90
2022-07-30T03:40:32.807Z,10.60
2022-07-30T03:43:01.618Z,10.90
2022-07-30T03:45:31.205Z,7.60
2022-07-30T03:48:07.945Z,5.70
2022-07-30T03:50:38.140Z,5.80
2022-07-30T03:53:07.567Z,5.80
2022-07-30T03:55:41.262Z,5.30
2022-07-30T03:58:35.886Z,6.00
2022-07-30T04:01:06.221Z,5.50
2022-07-30T04:03:34.881Z,5.80
2022-07-30T04:06:06.053Z,6.30
2022-07-30T04:08:34.538Z,6.90
2022-07-30T04:11:04.150Z,6.50
2022-07-30T04:14:00.291Z,7.40
2022-07-30T04:16:42.157Z,6.70
2022-07-30T04:19:19.834Z,7.00
2022-07-30T04:21:50.995Z,6.30
2022-07-30T04:24:20.511Z,6.60
2022-07-30T04:26:50.382Z,5.90
2022-07-30T04:29:24.133Z,6.60
2022-07-30T04:31:56.634Z,6.70
2022-07-30T04:34:34.206Z,6.50
2022-07-30T04:37:03.522Z,6.30
2022-07-30T04:39:31.880Z,6.60
2022-07-30T04:41:59.854Z,6.30
2022-07-30T04:44:31.248Z,6.60
2022-07-30T04:47:18.728Z,6.90
2022-07-30T04:49:58.191Z,6.00
2022-07-30T04:52:27.036Z,6.90
2022-07-30T04:54:58.242Z,5.90
2022-07-30T04:57:28.706Z,6.00
2022-07-30T04:59:58.848Z,5.90
2022-07-30T05:02:30.964Z,5.80
2022-07-30T05:05:00.758Z,6.00
2022-07-30T05:07:30.544Z,5.40
2022-07-30T05:09:59.750Z,5.90
2022-07-30T05:12:35.289Z,6.00
2022-07-30T05:15:08.359Z,5.50
2022-07-30T05:17:38.012Z,6.20
2022-07-30T05:20:08.444Z,5.50
2022-07-30T05:23:06.181Z,5.60
2022-07-30T05:25:34.560Z,5.60
2022-07-30T05:28:14.101Z,5.60
2022-07-30T05:30:43.448Z,5.10
2022-07-30T05:33:16.070Z,4.80
2022-07-30T05:35:44.872Z,5.40
2022-07-30T05:38:13.583Z,5.50
2022-07-30T05:41:30.748Z,5.70
2022-07-30T05:44:09.913Z,5.60
2022-07-30T05:46:38.850Z,5.30
2022-07-30T05:49:07.105Z,5.60
2022-07-30T05:51:35.177Z,5.20
2022-07-30T05:54:03.169Z,5.10
2022-07-30T05:56:51.575Z,5.70
2022-07-30T05:59:30.311Z,6.00
2022-07-30T06:02:03.471Z,7.60
2022-07-30T06:04:50.040Z,6.70
2022-07-30T06:07:18.468Z,7.30
2022-07-30T06:09:46.976Z,7.80
2022-07-30T06:12:15.252Z,6.90
2022-07-30T06:14:43.907Z,6.30
2022-07-30T06:17:15.315Z,6.40
2022-07-30T06:20:02.071Z,5.70
2022-07-30T06:22:32.942Z,6.00
2022-07-30T06:25:04.360Z,6.10
2022-07-30T06:27:37.844Z,5.80
2022-07-30T06:30:10.059Z,5.90
2022-07-30T06:32:38.298Z,6.00
2022-07-30T06:35:08.009Z,5.70
2022-07-30T06:38:05.973Z,5.40
2022-07-30T06:40:26.065Z,5.50
2022-07-30T06:43:15.109Z,6.00
2022-07-30T06:45:56.765Z,5.30
2022-07-30T06:48:30.943Z,6.10
2022-07-30T06:51:00.132Z,5.80
2022-07-30T06:53:28.927Z,5.60
2022-07-30T06:56:15.534Z,5.40
2022-07-30T06:58:47.965Z,5.20
2022-07-30T07:01:34.680Z,5.40
2022-07-30T07:04:03.872Z,5.80
2022-07-30T07:06:32.228Z,5.30
2022-07-30T07:09:01.606Z,5.50
2022-07-30T07:11:35.804Z,5.70
2022-07-30T07:14:08.212Z,5.50
2022-07-30T07:16:36.602Z,5.50
2022-07-30T07:20:00.931Z,5.50
2022-07-30T07:22:19.598Z,5.70
2022-07-30T07:24:47.774Z,5.20
2022-07-30T07:27:23.672Z,5.40
2022-07-30T07:30:01.733Z,5.20
2022-07-30T07:32:36.572Z,5.80
2022-07-30T07:35:06.054Z,5.80
2022-07-30T07:37:35.677Z,5.40
2022-07-30T07:40:04.656Z,5.10
2022-07-30T07:42:34.892Z,5.10
2022-07-30T07:45:03.783Z,5.60
2022-07-30T07:47:55.437Z,5.40
2022-07-30T07:50:46.727Z,5.50
2022-07-30T07:53:27.088Z,5.40
2022-07-30T07:55:55.383Z,4.90
2022-07-30T07:58:26.849Z,5.60
2022-07-30T08:00:58.537Z,5.60
2022-07-30T08:03:36.573Z,5.10
2022-07-30T08:06:15.379Z,5.30
2022-07-30T08:09:09.478Z,4.90
2022-07-30T08:12:00.590Z,4.90
2022-07-30T08:14:49.448Z,5.40
2022-07-30T08:17:44.972Z,5.30
2022-07-30T08:20:22.768Z,5.10
2022-07-30T08:22:51.657Z,4.90
2022-07-30T08:25:22.359Z,5.20
2022-07-30T08:27:53.250Z,5.40
2022-07-30T08:30:22.237Z,5.20
2022-07-30T08:32:50.908Z,4.80
2022-07-30T08:35:20.008Z,5.00
2022-07-30T08:37:48.282Z,5.30
2022-07-30T08:40:20.516Z,4.80
2022-07-30T08:42:54.004Z,4.90
2022-07-30T08:45:34.560Z,5.30
2022-07-30T08:48:27.146Z,4.80
2022-07-30T08:50:58.000Z,4.80
2022-07-30T08:54:01.735Z,4.80
2022-07-30T08:56:32.553Z,5.40
2022-07-30T08:59:02.154Z,4.90
2022-07-30T09:01:30.218Z,4.90
2022-07-30T09:03:58.451Z,5.00
2022-07-30T09:06:28.617Z,5.10
2022-07-30T09:08:56.895Z,5.00
2022-07-30T09:11:25.063Z,4.90
2022-07-30T09:13:53.342Z,4.90
2022-07-30T09:16:25.815Z,5.00
2022-07-30T09:18:57.267Z,5.00
2022-07-30T09:21:29.284Z,4.70
2022-07-30T09:24:14.618Z,4.70
2022-07-30T09:27:07.569Z,4.90
2022-07-30T09:29:59.406Z,4.90
2022-07-30T09:32:49.375Z,4.80
2022-07-30T09:35:36.398Z,5.10
2022-07-30T09:38:11.534Z,4.80
2022-07-30T09:40:57.774Z,5.10
2022-07-30T09:43:52.976Z,4.80
2022-07-30T09:46:45.468Z,5.40
2022-07-30T09:49:21.179Z,5.50
2022-07-30T09:51:55.945Z,5.20
2022-07-30T09:54:51.265Z,5.20
2022-07-30T09:57:25.808Z,5.10
2022-07-30T10:00:01.821Z,4.90
2022-07-30T10:02:33.071Z,5.40
2022-07-30T10:05:21.247Z,5.00
2022-07-30T10:07:56.792Z,4.80
2022-07-30T10:10:28.402Z,5.00
2022-07-30T10:13:04.608Z,4.90
2022-07-30T10:15:36.156Z,4.70
2022-07-30T10:18:06.638Z,4.60
2022-07-30T10:20:54.216Z,5.00
2022-07-30T10:23:44.418Z,4.50
2022-07-30T10:26:37.463Z,4.80
2022-07-30T10:29:23.884Z,4.60
2022-07-30T10:32:02.687Z,4.80
2022-07-30T10:34:34.406Z,4.60
2022-07-30T10:37:06.649Z,4.50
2022-07-30T10:39:39.710Z,4.60
2022-07-30T10:42:26.211Z,4.50
2022-07-30T10:45:17.685Z,4.50
2022-07-30T10:47:56.202Z,4.40
2022-07-30T10:50:29.234Z,4.20
2022-07-30T10:53:01.909Z,4.90
2022-07-30T10:55:38.838Z,4.80
2022-07-30T10:58:15.515Z,4.80
2022-07-30T11:00:52.143Z,4.80
2022-07-30T11:03:23.591Z,4.70
2022-07-30T11:06:15.471Z,4.50
2022-07-30T11:08:45.568Z,4.80
2022-07-30T11:11:28.652Z,4.50
2022-07-30T11:14:10.310Z,6.40
2022-07-30T11:16:42.331Z,5.40
2022-07-30T11:19:55.708Z,4.50
2022-07-30T11:22:40.820Z,4.60
2022-07-30T11:25:50.428Z,4.60
2022-07-30T11:28:38.408Z,4.50
2022-07-30T11:31:54.747Z,4.70
2022-07-30T11:34:24.231Z,4.60
2022-07-30T11:37:03.039Z,4.30
2022-07-30T11:39:56.103Z,4.40
2022-07-30T11:42:25.705Z,4.60
2022-07-30T11:44:54.624Z,4.40
2022-07-30T11:47:28.304Z,4.30
2022-07-30T11:49:56.569Z,4.50
2022-07-30T11:52:24.746Z,4.50
2022-07-30T11:54:56.227Z,4.60
2022-07-30T11:57:40.715Z,4.60
2022-07-30T12:00:09.480Z,4.70
2022-07-30T12:02:43.325Z,4.50
2022-07-30T12:05:12.033Z,4.30
2022-07-30T12:07:40.349Z,4.20
2022-07-30T12:10:26.801Z,4.40
2022-07-30T12:13:16.955Z,4.30
2022-07-30T12:15:49.516Z,4.20
2022-07-30T12:18:29.171Z,4.40
2022-07-30T12:21:04.054Z,4.80
2022-07-30T12:23:32.366Z,4.20
2022-07-30T12:26:00.447Z,4.60
2022-07-30T12:28:30.577Z,4.30
2022-07-30T12:31:00.545Z,4.30
2022-07-30T12:33:28.722Z,4.20
2022-07-30T12:35:59.472Z,4.60
2022-07-30T12:38:29.084Z,4.90
2022-07-30T12:41:04.840Z,4.60
2022-07-30T12:44:02.402Z,4.60
2022-07-30T12:46:38.944Z,4.50
2022-07-30T12:49:19.966Z,5.00
2022-07-30T12:51:59.733Z,4.90
2022-07-30T12:54:29.785Z,5.00
2022-07-30T12:56:59.992Z,4.80
2022-07-30T12:59:29.534Z,4.90
2022-07-30T13:02:00.653Z,4.20
2022-07-30T13:04:30.163Z,4.50
2022-07-30T13:07:09.014Z,4.90
2022-07-30T13:09:38.286Z,4.80
2022-07-30T13:12:07.151Z,4.40
2022-07-30T13:14:35.249Z,4.80
2022-07-30T13:17:04.390Z,4.80
2022-07-30T13:19:33.030Z,4.90
2022-07-30T13:22:01.206Z,4.70
2022-07-30T13:24:29.376Z,4.90
2022-07-30T13:26:57.753Z,5.10
2022-07-30T13:29:26.341Z,5.00
2022-07-30T13:31:54.329Z,5.00
2022-07-30T13:34:22.587Z,4.50
2022-07-30T13:36:50.762Z,4.40
2022-07-30T13:39:18.806Z,4.40
2022-07-30T13:41:46.838Z,4.40
2022-07-30T13:44:14.922Z,4.40
2022-07-30T13:46:43.045Z,4.70
2022-07-30T13:49:11.304Z,7.30
2022-07-30T13:51:39.580Z,4.90
2022-07-30T13:54:08.079Z,4.50
2022-07-30T13:56:40.558Z,4.80
2022-07-30T13:59:09.592Z,5.00
2022-07-30T14:01:38.279Z,4.90
2022-07-30T14:04:06.459Z,5.20
2022-07-30T14:06:34.545Z,4.70
2022-07-30T14:09:03.679Z,4.90
2022-07-30T14:11:32.362Z,4.90
2022-07-30T14:14:00.646Z,4.70
2022-07-30T14:16:44.801Z,4.10
2022-07-30T14:19:23.379Z,4.30
2022-07-30T14:21:54.194Z,4.60
2022-07-30T14:24:23.281Z,4.60
2022-07-30T14:26:57.415Z,4.70
2022-07-30T14:29:27.787Z,4.40
2022-07-30T14:31:56.877Z,4.40
2022-07-30T14:34:25.174Z,4.50
2022-07-30T14:36:53.471Z,4.50
2022-07-30T14:39:21.828Z,4.50
2022-07-30T14:41:52.374Z,4.40
2022-07-30T14:44:24.105Z,4.10
2022-07-30T14:46:53.280Z,4.60
2022-07-30T14:49:22.665Z,4.40
2022-07-30T14:51:52.852Z,4.90
2022-07-30T14:54:21.301Z,4.50
2022-07-30T14:56:54.868Z,4.90
2022-07-30T14:59:27.820Z,4.30
2022-07-30T15:01:58.047Z,4.80
2022-07-30T15:04:26.074Z,4.20
2022-07-30T15:06:54.259Z,4.60
2022-07-30T15:09:22.420Z,4.80
2022-07-30T15:12:08.954Z,4.70
2022-07-30T15:14:40.175Z,4.60
2022-07-30T15:17:09.269Z,5.70
2022-07-30T15:19:37.588Z,6.10
2022-07-30T15:22:21.589Z,4.80
2022-07-30T15:24:49.904Z,4.30
2022-07-30T15:27:18.092Z,5.10
2022-07-30T15:29:46.216Z,5.10
2022-07-30T15:32:15.612Z,4.40
2022-07-30T15:34:44.609Z,4.60
2022-07-30T15:37:12.859Z,6.00
2022-07-30T15:39:41.168Z,6.90
2022-07-30T15:42:09.268Z,7.10
2022-07-30T15:44:42.264Z,6.90
2022-07-30T15:47:16.343Z,6.40
2022-07-30T15:49:44.929Z,6.80
2022-07-30T15:52:13.300Z,5.60
2022-07-30T15:54:41.261Z,5.50
2022-07-30T15:57:09.255Z,6.30
2022-07-30T15:59:37.409Z,6.40
2022-07-30T16:02:05.901Z,6.00
2022-07-30T16:04:34.474Z,5.80
2022-07-30T16:07:04.289Z,6.50
2022-07-30T16:09:32.465Z,6.40
2022-07-30T16:12:00.992Z,6.30
2022-07-30T16:14:29.731Z,6.20
2022-07-30T16:16:57.705Z,6.50
2022-07-30T16:19:27.002Z,6.40
2022-07-30T16:21:55.584Z,6.20
2022-07-30T16:24:23.766Z,5.60
2022-07-30T16:26:52.143Z,5.60
2022-07-30T16:29:20.335Z,5.50
2022-07-30T16:31:48.413Z,5.10
2022-07-30T16:34:17.889Z,5.40
2022-07-30T16:36:54.902Z,5.10
2022-07-30T16:39:23.043Z,6.00
2022-07-30T16:41:51.115Z,5.50
2022-07-30T16:44:19.290Z,6.10
2022-07-30T16:46:48.337Z,5.80
2022-07-30T16:49:16.812Z,5.80
2022-07-30T16:51:45.146Z,5.20
2022-07-30T16:54:13.419Z,5.80
2022-07-30T16:56:41.701Z,5.30
2022-07-30T16:59:13.712Z,6.20
2022-07-30T17:01:42.241Z,5.30
2022-07-30T17:04:10.279Z,5.10
2022-07-30T17:06:40.141Z,5.40
2022-07-30T17:09:08.404Z,5.10
2022-07-30T17:11:46.944Z,5.40
2022-07-30T17:14:22.453Z,5.10
2022-07-30T17:16:50.704Z,5.10
2022-07-30T17:19:19.229Z,5.10
2022-07-30T17:21:47.297Z,5.30
2022-07-30T17:24:15.475Z,4.90
2022-07-30T17:26:46.663Z,4.80
2022-07-30T17:29:16.032Z,4.70
2022-07-30T17:31:45.792Z,4.70
2022-07-30T17:34:20.161Z,4.60
2022-07-30T17:36:51.614Z,4.70
2022-07-30T17:40:19.712Z,4.30
2022-07-30T17:42:12.152Z,5.10
2022-07-30T17:44:42.695Z,4.60
2022-07-30T17:47:15.164Z,5.00
2022-07-30T17:49:44.824Z,4.60
2022-07-30T17:52:13.123Z,4.00
2022-07-30T17:54:41.485Z,4.90
2022-07-30T17:57:09.663Z,4.20
2022-07-30T17:59:38.467Z,3.90
2022-07-30T18:02:06.848Z,4.40
2022-07-30T18:04:36.055Z,3.70
2022-07-30T18:07:05.119Z,4.00
2022-07-30T18:09:39.536Z,3.60
2022-07-30T18:12:08.942Z,3.70
2022-07-30T18:14:37.636Z,3.70
2022-07-30T18:17:07.403Z,4.50
2022-07-30T18:19:37.357Z,4.30
2022-07-30T18:22:05.956Z,3.70
2022-07-30T18:24:40.306Z,3.90
2022-07-30T18:27:08.947Z,4.10
2022-07-30T18:29:37.120Z,4.00
2022-07-30T18:32:06.253Z,3.80
2022-07-30T18:34:35.106Z,3.90
2022-07-30T18:37:03.486Z,3.40
2022-07-30T18:39:31.764Z,3.40
2022-07-30T18:42:00.572Z,3.30
2022-07-30T18:44:29.337Z,3.10
2022-07-30T18:46:57.620Z,3.90
2022-07-30T18:49:41.105Z,3.10
2022-07-30T18:52:09.195Z,3.50
2022-07-30T18:54:38.066Z,2.80
2022-07-30T18:57:08.194Z,3.20
2022-07-30T18:59:39.786Z,3.00
2022-07-30T19:02:08.674Z,2.90
2022-07-30T19:04:36.787Z,3.20
2022-07-30T19:07:05.020Z,3.30
2022-07-30T19:09:33.410Z,3.60
2022-07-30T19:12:01.772Z,3.40
2022-07-30T19:14:30.264Z,3.40
2022-07-30T19:16:59.360Z,3.50
2022-07-30T19:19:28.656Z,3.30
2022-07-30T19:21:57.444Z,2.90
2022-07-30T19:24:25.621Z,2.90
2022-07-30T19:26:56.596Z,2.80
2022-07-30T19:29:24.668Z,2.90
2022-07-30T19:31:52.918Z,2.90
2022-07-30T19:34:21.011Z,3.20
2022-07-30T19:36:49.162Z,2.90
2022-07-30T19:39:21.189Z,3.10
2022-07-30T19:41:50.768Z,3.20
2022-07-30T19:44:19.513Z,3.20
2022-07-30T19:46:48.936Z,2.90
2022-07-30T19:49:21.728Z,2.60
2022-07-30T19:52:10.584Z,2.50
2022-07-30T19:54:38.547Z,2.40
2022-07-30T19:57:06.637Z,2.60
2022-07-30T19:59:46.118Z,2.70
2022-07-30T20:02:22.917Z,3.10
2022-07-30T20:04:52.014Z,2.90
2022-07-30T20:07:20.082Z,3.10
2022-07-30T20:09:49.166Z,2.70
2022-07-30T20:12:17.689Z,3.60
2022-07-30T20:14:45.860Z,3.00
2022-07-30T20:17:14.573Z,2.80
2022-07-30T20:19:48.160Z,3.10
2022-07-30T20:22:31.040Z,3.00
2022-07-30T20:25:00.147Z,3.00
2022-07-30T20:27:37.173Z,2.70
2022-07-30T20:30:09.080Z,2.60
2022-07-30T20:32:37.871Z,2.80
2022-07-30T20:35:10.654Z,3.00
2022-07-30T20:40:27.585Z,2.80
2022-07-30T20:42:55.732Z,2.80
2022-07-30T20:45:25.260Z,2.40
2022-07-30T20:47:56.833Z,3.00
2022-07-30T20:50:30.951Z,3.00
2022-07-30T20:52:59.741Z,3.20
2022-07-30T20:55:28.404Z,2.90
2022-07-30T20:58:07.897Z,3.10
2022-07-30T21:00:41.991Z,3.00
2022-07-30T21:03:22.211Z,3.00
2022-07-30T21:05:51.147Z,3.00
2022-07-30T21:08:25.241Z,3.70
2022-07-30T21:10:55.145Z,3.20
2022-07-30T21:13:25.399Z,3.60
2022-07-30T21:16:02.644Z,3.30
2022-07-30T21:18:32.806Z,3.50
2022-07-30T21:21:04.886Z,3.40
2022-07-30T21:23:34.236Z,3.40
2022-07-30T21:26:07.031Z,3.60
2022-07-30T21:28:39.075Z,3.50
2022-07-30T21:31:09.234Z,3.80
2022-07-30T21:33:37.784Z,4.00
2022-07-30T21:36:10.210Z,3.50
2022-07-30T21:38:42.717Z,4.20
2022-07-30T21:41:15.245Z,4.00
2022-07-30T21:43:45.042Z,4.00
2022-07-30T21:46:14.744Z,4.20
2022-07-30T21:48:45.753Z,3.70
2022-07-30T21:51:15.891Z,4.00
2022-07-30T21:56:32.616Z,4.70
2022-07-30T21:59:01.402Z,3.60
2022-07-30T22:01:33.106Z,3.60
2022-07-30T22:04:08.079Z,4.10
2022-07-30T22:06:39.677Z,4.00
2022-07-30T22:09:18.585Z,3.60
2022-07-30T22:11:55.609Z,3.70
2022-07-30T22:14:25.586Z,3.90
2022-07-30T22:16:54.052Z,4.00
2022-07-30T22:19:23.459Z,4.00
2022-07-30T22:21:54.102Z,3.70
2022-07-30T22:24:29.724Z,4.00
2022-07-30T22:27:01.295Z,4.00
2022-07-30T22:29:34.055Z,3.80
2022-07-30T22:34:52.935Z,4.60
2022-07-30T22:37:21.851Z,4.90
2022-07-30T22:39:51.085Z,4.60
2022-07-30T22:42:24.463Z,4.40
2022-07-30T22:44:54.762Z,4.60
2022-07-30T22:47:50.883Z,4.00
2022-07-30T22:50:14.824Z,4.50
2022-07-30T22:53:00.126Z,4.40
2022-07-30T22:55:33.944Z,4.50
2022-07-30T22:58:02.123Z,4.60
2022-07-30T23:00:30.501Z,4.50
2022-07-30T23:03:00.517Z,4.50
2022-07-30T23:05:30.354Z,4.50
2022-07-30T23:08:04.542Z,4.90
2022-07-30T23:10:32.725Z,5.10
2022-07-30T23:12:19.383Z,3.00
2022-07-30T23:12:28.905Z,4.90
2022-07-30T23:12:31.606Z,4.40
2022-07-30T23:13:00.961Z,5.10
2022-07-30T23:15:29.884Z,5.20
2022-07-30T23:17:57.955Z,5.20
2022-07-30T23:20:28.485Z,4.90
2022-07-30T23:22:56.809Z,4.90
2022-07-30T23:25:27.503Z,5.30
2022-07-30T23:28:07.153Z,5.20
2022-07-30T23:30:35.825Z,4.80
2022-07-30T23:33:04.126Z,4.60
2022-07-30T23:35:32.278Z,4.60
2022-07-30T23:38:00.474Z,4.30
2022-07-30T23:40:28.624Z,4.40
2022-07-30T23:42:56.903Z,4.20
2022-07-30T23:45:25.080Z,4.10
2022-07-30T23:48:02.754Z,4.50
2022-07-30T23:50:32.969Z,4.40
2022-07-30T23:53:02.294Z,3.70
2022-07-30T23:55:31.497Z,3.50
2022-07-30T23:58:00.560Z,4.50
